This is the latest recevied weather packets stored in our database for station/object K0FJ-1. If no packets are shown the sender has not sent any weather packets the latest 10 day(s).
| Time | Temp. | Humidity | Pressure | Rain* | Wind** | Luminosity | Snow |
|---|---|---|---|---|---|---|---|
| 1788058803 | 30° C | 45% | 1011.9 hPa | 0 mm | - | - | - |
| 1788058503 | 30° C | 46% | 1011.8 hPa | 0 mm | - | - | - |
| 1788058203 | 29.44° C | 48% | 1011.7 hPa | 0 mm | - | - | - |
| 1788057903 | 28.33° C | 50% | 1011.7 hPa | 0 mm | - | - | - |
| 1788057603 | 28.33° C | 53% | 1011.7 hPa | 0 mm | - | - | - |
| 1788057303 | 28.33° C | 54% | 1011.7 hPa | 0 mm | - | - | - |
| 1788057003 | 28.33° C | 56% | 1011.7 hPa | 0 mm | - | - | - |
| 1788056703 | 28.33° C | 56% | 1011.6 hPa | 0 mm | - | - | - |
| 1788056404 | 28.33° C | 55% | 1011.4 hPa | 0 mm | - | - | - |
| 1788056103 | 28.89° C | 55% | 1011.4 hPa | 0 mm | - | - | - |
| 1788055803 | 28.89° C | 55% | 1011.3 hPa | 0 mm | - | - | - |
| 1788055503 | 29.44° C | 54% | 1011.3 hPa | 0 mm | - | - | - |
| 1788055203 | 29.44° C | 54% | 1011.3 hPa | 0 mm | - | - | - |
| 1788054903 | 30° C | 53% | 1011.3 hPa | 0 mm | - | - | - |
| 1788054603 | 30° C | 52% | 1011.3 hPa | 0 mm | - | - | - |
| 1788054303 | 30.56° C | 51% | 1011.4 hPa | 0 mm | - | - | - |
| 1788054003 | 31.11° C | 49% | 1011.4 hPa | 0 mm | - | - | - |
| 1788053703 | 31.11° C | 49% | 1011.4 hPa | 0 mm | - | - | - |
| 1788053403 | 31.67° C | 48% | 1011.5 hPa | 0 mm | - | - | - |
| 1788053103 | 31.67° C | 47% | 1011.5 hPa | 0 mm | - | - | - |
| 1788052803 | 32.22° C | 48% | 1011.5 hPa | 0 mm | - | - | - |
| 1788052503 | 32.22° C | 47% | 1011.5 hPa | 0 mm | - | - | - |
| 1788052203 | 32.78° C | 47% | 1011.4 hPa | 0 mm | - | - | - |
| 1788051903 | 33.33° C | 47% | 1011.3 hPa | 0 mm | - | - | - |
| 1788051603 | 33.33° C | 46% | 1011.3 hPa | 0 mm | - | - | - |
* Rain latest hour (hover to see other rain measurements)
** Current wind speed in m/s (hover to see current wind gust speed)